Time;durP1;ratioP1;P1;durP2;ratioP2;P2;SDS_P1;SDS_P2;PMS_P1;PMS_P2;Temp;Humidity;BMP_temperature;BMP_pressure;BME280_temperature;BME280_humidity;BME280_pressure;Samples;Min_cycle;Max_cycle;Signal;HPM_P1;HPM_P2
2022/06/01 05:55:08;;;;;;;;;;;;;;;11.79;77.39;100203.59;6280826;22;1916;-90
2022/06/01 05:57:34;;;;;;;;;;;;;;;11.85;77.23;100205.16;6253573;22;1233;-91
2022/06/01 05:59:59;;;;;;;;;;;;;;;11.89;77.24;100209.75;6254015;22;1208;-91
2022/06/01 06:02:24;;;;;;;;;;;;;;;11.93;76.83;100202.56;6251664;22;1302;-91
2022/06/01 06:04:49;;;;;;;;;;;;;;;12.00;76.81;100216.72;6250541;22;1239;-91
2022/06/01 06:07:14;;;;;;;;;;;;;;;12.04;76.79;100212.28;6251356;22;1210;-92
2022/06/01 06:09:39;;;;;;;;;;;;;;;12.07;76.62;100208.13;6252363;22;1288;-91
2022/06/01 06:12:05;;;;;;;;;;;;;;;12.17;76.30;100207.94;6253542;22;1322;-91
2022/06/01 06:14:30;;;;;;;;;;;;;;;12.31;76.43;100206.09;6253231;22;1893;-92
2022/06/01 06:16:55;;;;;;;;;;;;;;;12.40;76.05;100206.25;6280051;22;848;-91
2022/06/01 06:19:20;;;;;;;;;;;;;;;12.51;75.52;100208.50;6252601;22;1183;-92
2022/06/01 06:21:47;;;;;;;;;;;;;;;12.60;75.13;100205.06;6253056;22;1364;-91
2022/06/01 06:24:13;;;;;;;;;;;;;;;12.75;74.80;100204.81;6252510;22;1261;-90
2022/06/01 06:26:39;;;;;;;;;;;;;;;12.84;74.50;100203.78;6254972;22;1211;-92
2022/06/01 06:29:05;;;;;;;;;;;;;;;13.03;74.96;100203.72;6254636;22;1314;-91
2022/06/01 06:31:31;;;;;;;;;;;;;;;13.17;74.46;100207.34;6283724;22;810;-91
2022/06/01 06:33:57;;;;;;;;;;;;;;;13.05;73.47;100204.25;6256473;22;1199;-91
2022/06/01 06:36:23;;;;;;;;;;;;;;;13.06;73.35;100216.84;6255765;22;1928;-90
2022/06/01 06:38:48;;;;;;;;;;;;;;;12.98;69.77;100212.06;6254603;22;1186;-91
2022/06/01 06:41:14;;;;;;;;;;;;;;;12.93;67.99;100212.16;6253852;22;1197;-91
2022/06/01 06:43:40;;;;;;;;;;;;;;;12.77;69.92;100206.13;6253756;22;1316;-91
2022/06/01 06:46:09;;;;;;;;;;;;;;;12.83;69.11;100218.66;6254868;22;1183;-92
2022/06/01 06:48:34;;;;;;;;;;;;;;;13.03;69.35;100211.97;6254295;22;1112;-92
2022/06/01 06:51:00;;;;;;;;;;;;;;;13.17;67.90;100210.09;6253899;22;1175;-92
2022/06/01 06:53:26;;;;;;;;;;;;;;;13.10;68.58;100226.09;6253684;22;1191;-92
2022/06/01 06:55:51;;;;;;;;;;;;;;;13.07;67.42;100215.75;6253881;22;1930;-91
2022/06/01 06:58:16;;;;;;;;;;;;;;;13.12;67.34;100212.88;6254523;22;1228;-91
2022/06/01 07:00:42;;;;;;;;;;;;;;;13.37;66.85;100230.84;6281557;22;1190;-91
2022/06/01 07:03:07;;;;;;;;;;;;;;;13.36;67.12;100217.41;6254170;22;1274;-92
2022/06/01 07:08:17;;;;;;;;;;;;;;;13.27;65.46;100222.00;6281149;22;596;-92
2022/06/01 07:10:42;;;;;;;;;;;;;;;13.12;66.66;100223.06;6281454;22;1230;-91
2022/06/01 07:13:07;;;;;;;;;;;;;;;13.27;65.89;100218.09;6254164;22;1266;-91
2022/06/01 07:15:33;;;;;;;;;;;;;;;13.27;66.81;100226.34;6253856;22;1920;-92
2022/06/01 07:17:58;;;;;;;;;;;;;;;13.38;65.58;100226.97;6253776;22;1263;-91
2022/06/01 07:20:23;;;;;;;;;;;;;;;13.43;66.76;100239.81;6253547;22;1249;-91
2022/06/01 07:22:48;;;;;;;;;;;;;;;13.56;65.97;100225.25;6253602;22;1169;-91
2022/06/01 07:25:13;;;;;;;;;;;;;;;13.39;65.76;100233.28;6253680;22;1180;-91
2022/06/01 07:27:39;;;;;;;;;;;;;;;13.41;67.45;100233.81;6253543;22;1295;-91
2022/06/01 07:30:04;;;;;;;;;;;;;;;13.47;66.64;100244.38;6253317;22;1186;-91
2022/06/01 07:32:30;;;;;;;;;;;;;;;13.42;67.29;100251.94;6252513;22;1268;-91
2022/06/01 07:34:55;;;;;;;;;;;;;;;13.23;67.72;100250.09;6253924;22;1880;-90
2022/06/01 07:43:06;;;;;;;;;;;;;;;13.70;67.37;100239.78;6281772;22;588;-91
2022/06/01 07:45:39;;;;;;;;;;;;;;;13.59;63.70;100233.69;6253372;22;1171;-92
2022/06/01 07:48:05;;;;;;;;;;;;;;;13.90;66.49;100244.03;6254016;22;1293;-92
2022/06/01 07:50:30;;;;;;;;;;;;;;;14.11;64.88;100238.91;6253165;22;1277;-92
2022/06/01 07:52:55;;;;;;;;;;;;;;;14.11;64.52;100242.47;6253595;22;1162;-91
2022/06/01 07:55:21;;;;;;;;;;;;;;;14.05;64.26;100240.94;6253012;22;1888;-92
2022/06/01 07:57:46;;;;;;;;;;;;;;;14.03;65.05;100244.00;6252931;22;1299;-91
2022/06/01 08:00:11;;;;;;;;;;;;;;;13.78;61.50;100238.28;6253406;22;1207;-92
2022/06/01 08:02:38;;;;;;;;;;;;;;;13.96;64.47;100234.53;6280991;22;735;-91
2022/06/01 08:05:03;;;;;;;;;;;;;;;14.19;62.73;100249.19;6253378;22;1191;-92
2022/06/01 08:07:28;;;;;;;;;;;;;;;14.31;62.60;100243.91;6253730;22;1175;-92
2022/06/01 08:09:53;;;;;;;;;;;;;;;14.57;60.68;100242.22;6253555;22;1247;-91
2022/06/01 08:15:02;;;;;;;;;;;;;;;14.95;60.70;100236.31;6281345;22;1893;-92
2022/06/01 08:17:28;;;;;;;;;;;;;;;14.98;60.06;100241.16;6252731;22;1161;-92
2022/06/01 08:19:53;;;;;;;;;;;;;;;14.54;59.56;100237.34;6252845;22;1285;-92
2022/06/01 08:22:18;;;;;;;;;;;;;;;14.32;61.31;100253.81;6252614;22;993;-92
2022/06/01 08:24:43;;;;;;;;;;;;;;;14.00;62.32;100257.56;6252502;22;1107;-92
2022/06/01 08:27:08;;;;;;;;;;;;;;;13.59;60.45;100257.63;6252761;22;1184;-92
2022/06/01 08:29:35;;;;;;;;;;;;;;;13.59;61.49;100260.38;6252685;22;1245;-92
2022/06/01 08:32:00;;;;;;;;;;;;;;;13.49;58.88;100253.16;6252919;22;1228;-92
2022/06/01 08:34:25;;;;;;;;;;;;;;;13.83;61.11;100249.16;6252484;22;1248;-92
2022/06/01 08:36:51;;;;;;;;;;;;;;;14.31;59.63;100241.16;6252916;22;1910;-92
2022/06/01 08:39:16;;;;;;;;;;;;;;;14.72;56.66;100252.84;6252566;22;1293;-92
2022/06/01 08:41:41;;;;;;;;;;;;;;;14.85;59.17;100242.06;6253089;22;1200;-92
2022/06/01 08:44:25;;;;;;;;;;;;;;;14.89;58.01;100243.06;6252340;22;1156;-92
2022/06/01 08:46:51;;;;;;;;;;;;;;;14.77;56.42;100244.47;6252656;22;1278;-92
2022/06/01 08:49:22;;;;;;;;;;;;;;;14.80;58.29;100242.22;6252936;22;1259;-92
2022/06/01 08:51:48;;;;;;;;;;;;;;;14.68;59.21;100251.03;6252814;22;1293;-92
2022/06/01 08:54:21;;;;;;;;;;;;;;;14.26;59.30;100255.06;6252530;22;1257;-92
2022/06/01 08:56:55;;;;;;;;;;;;;;;14.01;61.53;100253.72;6252940;22;1896;-92
2022/06/01 08:59:43;;;;;;;;;;;;;;;13.79;61.69;100259.94;6252923;22;1323;-91
2022/06/01 09:02:22;;;;;;;;;;;;;;;14.09;57.88;100254.91;6253130;22;1229;-91
2022/06/01 09:04:51;;;;;;;;;;;;;;;14.51;60.29;100253.69;6253277;22;1282;-92
2022/06/01 09:07:27;;;;;;;;;;;;;;;14.54;56.18;100251.13;6252729;22;1177;-92
2022/06/01 09:10:01;;;;;;;;;;;;;;;14.64;55.17;100237.06;6252156;22;1327;-92
2022/06/01 09:12:27;;;;;;;;;;;;;;;14.88;58.14;100242.28;6252943;22;1230;-92
2022/06/01 09:14:54;;;;;;;;;;;;;;;14.66;54.96;100234.81;6253018;22;1923;-91
2022/06/01 09:17:19;;;;;;;;;;;;;;;14.71;56.86;100248.50;6252840;22;1363;-91
2022/06/01 19:01:33;;;;;;;;;;;;;;;13.32;75.47;100503.09;6275669;22;1193;-92
2022/06/01 19:04:09;;;;;;;;;;;;;;;13.41;74.48;100500.50;6250025;22;1306;-93
2022/06/01 19:06:35;;;;;;;;;;;;;;;13.01;67.91;100513.72;6250105;22;1352;-92
2022/06/01 19:09:01;;;;;;;;;;;;;;;12.82;68.83;100507.38;6250206;22;1218;-92
2022/06/01 19:11:27;;;;;;;;;;;;;;;12.57;68.61;100502.22;6250419;22;1121;-92
2022/06/01 19:13:52;;;;;;;;;;;;;;;12.68;69.38;100501.75;6250752;22;1147;-92
2022/06/01 19:16:28;;;;;;;;;;;;;;;12.58;69.82;100493.69;6251608;22;1892;-93
2022/06/01 19:18:53;;;;;;;;;;;;;;;12.92;68.97;100493.50;6252104;22;1306;-93
2022/06/01 19:21:19;;;;;;;;;;;;;;;13.11;69.20;100501.72;6252569;22;1247;-92
2022/06/01 19:23:44;;;;;;;;;;;;;;;13.12;69.28;100503.38;6252015;22;1450;-92
2022/06/01 19:26:11;;;;;;;;;;;;;;;13.27;70.58;100496.88;6251777;22;1123;-92
2022/06/01 19:28:38;;;;;;;;;;;;;;;13.17;69.83;100498.66;6251649;22;1247;-93
2022/06/01 19:31:04;;;;;;;;;;;;;;;13.01;67.31;100497.22;6252080;22;1147;-92
2022/06/01 19:33:29;;;;;;;;;;;;;;;13.12;67.87;100498.69;6251887;22;1317;-93
2022/06/01 19:44:07;;;;;;;;;;;;;;;12.54;71.20;100511.84;6278393;22;647;-91
2022/06/01 19:46:33;;;;;;;;;;;;;;;12.48;72.26;100515.75;6279435;22;834;-91
2022/06/01 19:48:58;;;;;;;;;;;;;;;12.39;72.74;100523.81;6251508;22;1223;-91
2022/06/01 19:51:24;;;;;;;;;;;;;;;12.23;74.90;100527.84;6250166;22;1124;-91
2022/06/01 19:53:52;;;;;;;;;;;;;;;12.08;76.14;100525.25;6250648;22;1188;-91
2022/06/01 19:56:19;;;;;;;;;;;;;;;12.05;74.35;100539.56;6252122;22;1928;-92
2022/06/01 19:58:44;;;;;;;;;;;;;;;12.31;72.49;100538.19;6283388;22;1298;-92
2022/06/01 20:01:09;;;;;;;;;;;;;;;12.06;72.65;100538.47;6278714;22;941;-92
2022/06/01 20:03:34;;;;;;;;;;;;;;;11.72;73.29;100546.69;6286308;22;1043;-91
2022/06/01 20:05:59;;;;;;;;;;;;;;;11.82;73.70;100543.06;6285566;22;1148;-92
2022/06/01 20:08:24;;;;;;;;;;;;;;;11.95;72.90;100545.13;6287153;22;1298;-93
2022/06/01 20:10:50;;;;;;;;;;;;;;;12.09;70.97;100546.91;6284400;22;1199;-92
2022/06/01 20:13:16;;;;;;;;;;;;;;;12.10;71.69;100545.81;6282928;22;1187;-95
2022/06/01 20:15:47;;;;;;;;;;;;;;;11.93;72.53;100555.56;6279511;22;1926;-94
2022/06/01 20:18:13;;;;;;;;;;;;;;;12.04;73.02;100549.72;6280292;22;1354;-95
2022/06/01 20:20:39;;;;;;;;;;;;;;;12.08;72.78;100547.19;6278728;22;1266;-94
2022/06/01 20:23:04;;;;;;;;;;;;;;;12.12;72.50;100551.00;6278252;22;1250;-94
2022/06/01 20:25:31;;;;;;;;;;;;;;;11.74;74.35;100556.28;6280245;22;1127;-95
2022/06/01 20:27:57;;;;;;;;;;;;;;;11.72;74.57;100563.13;6282355;22;1261;-95
2022/06/01 20:30:22;;;;;;;;;;;;;;;11.10;75.96;100564.63;6282062;22;1243;-96
2022/06/01 20:32:47;;;;;;;;;;;;;;;10.89;77.24;100563.91;6282651;22;1266;-94
2022/06/01 20:35:13;;;;;;;;;;;;;;;10.97;76.93;100563.31;6279992;22;1924;-94
2022/06/01 20:37:39;;;;;;;;;;;;;;;11.06;77.01;100560.03;6279509;22;1290;-95
2022/06/01 20:40:05;;;;;;;;;;;;;;;11.22;76.71;100565.13;6282608;22;1183;-94
2022/06/01 20:42:30;;;;;;;;;;;;;;;11.04;76.41;100564.97;6281788;22;1463;-95
2022/06/01 20:44:55;;;;;;;;;;;;;;;10.88;77.32;100562.31;6280116;22;1008;-91
2022/06/01 20:47:21;;;;;;;;;;;;;;;11.12;76.14;100561.63;6279724;22;1254;-92
2022/06/01 20:49:46;;;;;;;;;;;;;;;10.66;77.64;100561.81;6280982;22;1283;-92
2022/06/01 20:52:12;;;;;;;;;;;;;;;10.68;77.50;100569.75;6286163;22;1178;-93
2022/06/01 20:54:38;;;;;;;;;;;;;;;10.94;76.76;100569.38;6294964;22;1340;-93
2022/06/01 20:57:03;;;;;;;;;;;;;;;10.78;76.08;100570.56;6289389;22;1865;-93
2022/06/01 20:59:28;;;;;;;;;;;;;;;10.98;75.73;100575.91;6295856;22;1263;-93
2022/06/01 21:01:54;;;;;;;;;;;;;;;11.10;75.48;100572.03;6296784;22;1112;-93
2022/06/01 21:04:19;;;;;;;;;;;;;;;10.64;76.70;100572.22;6293059;22;1278;-93
2022/06/01 21:06:47;;;;;;;;;;;;;;;10.49;76.89;100592.25;6287812;22;1195;-93
2022/06/01 21:09:13;;;;;;;;;;;;;;;10.35;76.83;100596.69;6281155;22;1290;-93
2022/06/01 21:11:38;;;;;;;;;;;;;;;10.19;78.59;100601.34;6277167;22;1214;-94
2022/06/01 21:14:04;;;;;;;;;;;;;;;10.23;77.83;100604.34;6276977;22;1226;-94
2022/06/01 21:16:29;;;;;;;;;;;;;;;10.36;77.93;100603.78;6276972;22;1893;-94
2022/06/01 21:21:50;;;;;;;;;;;;;;;10.33;77.64;100601.59;6279035;22;797;-94
2022/06/01 21:24:16;;;;;;;;;;;;;;;10.29;76.80;100608.75;6276797;22;1341;-94
2022/06/01 21:26:41;;;;;;;;;;;;;;;10.04;77.00;100609.53;6277134;22;1236;-94
2022/06/01 21:29:07;;;;;;;;;;;;;;;9.74;78.38;100610.34;6277634;22;1330;-94
2022/06/01 21:31:32;;;;;;;;;;;;;;;9.43;79.17;100616.88;6277882;22;1345;-94
2022/06/01 21:33:58;;;;;;;;;;;;;;;9.39;79.62;100616.56;6277441;22;934;-94
2022/06/01 21:36:23;;;;;;;;;;;;;;;9.61;80.32;100621.81;6276992;22;1936;-94
2022/06/01 21:38:48;;;;;;;;;;;;;;;10.05;79.29;100624.84;6278615;22;1215;-93
2022/06/01 21:41:13;;;;;;;;;;;;;;;10.26;77.61;100622.97;6279543;22;961;-94
2022/06/01 21:43:38;;;;;;;;;;;;;;;10.32;76.60;100624.59;6277726;22;1385;-94
2022/06/01 21:46:03;;;;;;;;;;;;;;;10.23;77.49;100631.69;6278154;22;984;-94
2022/06/01 21:48:29;;;;;;;;;;;;;;;9.98;77.34;100624.31;6278273;22;1211;-94
2022/06/01 21:50:54;;;;;;;;;;;;;;;9.86;78.41;100627.31;6278398;22;1084;-94
2022/06/01 21:53:20;;;;;;;;;;;;;;;9.81;78.65;100624.56;6279374;22;1247;-94
2022/06/01 21:55:47;;;;;;;;;;;;;;;9.82;78.30;100622.66;6282741;22;1892;-94
2022/06/01 21:58:12;;;;;;;;;;;;;;;9.54;78.61;100614.97;6287254;22;1274;-94
2022/06/01 22:00:41;;;;;;;;;;;;;;;9.39;78.61;100624.78;6281347;22;1137;-95
2022/06/01 22:03:07;;;;;;;;;;;;;;;9.24;79.11;100624.75;6279852;22;1151;-94
2022/06/01 22:05:34;;;;;;;;;;;;;;;9.56;78.50;100620.97;6278981;22;1254;-94
2022/06/01 22:07:59;;;;;;;;;;;;;;;9.34;78.87;100624.78;6279676;22;1280;-94
2022/06/01 22:10:24;;;;;;;;;;;;;;;9.64;78.25;100621.28;6279259;22;1317;-95
2022/06/01 22:12:50;;;;;;;;;;;;;;;9.51;76.56;100620.97;6279290;22;1269;-94
2022/06/01 22:15:15;;;;;;;;;;;;;;;9.16;76.49;100619.81;6278706;22;1918;-94
2022/06/01 22:17:41;;;;;;;;;;;;;;;9.36;77.88;100622.56;6279465;22;1195;-94
2022/06/01 22:20:06;;;;;;;;;;;;;;;9.24;76.54;100632.13;6279343;22;1275;-94
2022/06/01 22:22:31;;;;;;;;;;;;;;;8.69;78.63;100630.78;6279576;22;1179;-94
2022/06/01 22:24:57;;;;;;;;;;;;;;;8.70;79.04;100626.97;6280204;22;1366;-94
2022/06/01 22:27:22;;;;;;;;;;;;;;;8.90;77.70;100635.25;6281081;22;1297;-94
2022/06/01 22:29:48;;;;;;;;;;;;;;;9.05;77.47;100631.75;6279897;22;1222;-94
2022/06/01 22:32:14;;;;;;;;;;;;;;;8.93;76.78;100631.97;6279358;22;1290;-94
2022/06/01 22:37:26;;;;;;;;;;;;;;;9.07;75.68;100638.63;6280701;22;631;-94
2022/06/01 22:39:53;;;;;;;;;;;;;;;8.53;77.08;100631.78;6278396;22;1258;-94
2022/06/01 22:42:19;;;;;;;;;;;;;;;8.49;78.51;100634.22;6278408;22;1195;-94
2022/06/01 22:44:52;;;;;;;;;;;;;;;8.39;78.70;100630.59;6279011;22;1456;-94
2022/06/01 22:47:24;;;;;;;;;;;;;;;8.36;79.20;100631.94;6279394;22;1167;-94
2022/06/01 22:49:52;;;;;;;;;;;;;;;8.52;77.99;100636.41;6278652;22;1253;-94
2022/06/01 22:52:22;;;;;;;;;;;;;;;8.52;77.91;100641.88;6280861;22;1206;-94
2022/06/01 22:54:48;;;;;;;;;;;;;;;8.65;76.73;100638.69;6280798;22;1150;-94
2022/06/01 22:57:13;;;;;;;;;;;;;;;8.50;76.29;100640.50;6280188;22;1897;-94
2022/06/01 22:59:38;;;;;;;;;;;;;;;8.08;77.81;100640.44;6279299;22;1247;-94
2022/06/01 23:02:04;;;;;;;;;;;;;;;8.19;77.73;100640.25;6280588;22;1202;-93
2022/06/01 23:04:29;;;;;;;;;;;;;;;8.35;77.87;100644.75;6280091;22;1309;-94
2022/06/01 23:06:54;;;;;;;;;;;;;;;8.64;77.70;100639.75;6279278;22;1155;-94
2022/06/01 23:09:19;;;;;;;;;;;;;;;8.85;75.85;100648.03;6278651;22;1195;-93
2022/06/01 23:11:44;;;;;;;;;;;;;;;8.84;75.82;100647.25;6279306;22;929;-94
2022/06/01 23:14:10;;;;;;;;;;;;;;;8.57;75.71;100649.28;6278875;22;1012;-94
2022/06/01 23:16:37;;;;;;;;;;;;;;;8.36;76.82;100645.56;6279863;22;1912;-95
2022/06/01 23:19:02;;;;;;;;;;;;;;;8.33;78.00;100648.84;6278540;22;1345;-94
2022/06/01 23:21:27;;;;;;;;;;;;;;;8.22;77.10;100656.09;6278833;22;1191;-94
2022/06/01 23:23:53;;;;;;;;;;;;;;;7.95;78.37;100653.41;6278679;22;1230;-94
2022/06/01 23:26:21;;;;;;;;;;;;;;;8.19;78.49;100659.34;6278479;22;1286;-94
2022/06/01 23:28:46;;;;;;;;;;;;;;;8.16;77.37;100654.41;6278459;22;1333;-94
2022/06/01 23:31:36;;;;;;;;;;;;;;;7.90;77.31;100656.09;6278293;22;1270;-94
2022/06/01 23:34:13;;;;;;;;;;;;;;;7.63;77.96;100662.66;6278264;22;1333;-94
2022/06/01 23:36:47;;;;;;;;;;;;;;;7.56;79.00;100660.13;6279231;22;1920;-94
2022/06/01 23:39:18;;;;;;;;;;;;;;;7.51;78.14;100662.78;6280026;22;1299;-94
2022/06/01 23:41:46;;;;;;;;;;;;;;;7.50;79.15;100666.59;6280701;22;1222;-94
2022/06/01 23:44:35;;;;;;;;;;;;;;;7.32;81.42;100665.03;6281084;22;1282;-94
2022/06/01 23:47:10;;;;;;;;;;;;;;;7.53;80.40;100671.53;6280864;22;1274;-94
2022/06/01 23:49:58;;;;;;;;;;;;;;;7.60;80.04;100669.41;6281477;22;1349;-94
2022/06/01 23:52:50;;;;;;;;;;;;;;;7.47;80.29;100664.41;6287529;22;1252;-93
2022/06/01 23:55:19;;;;;;;;;;;;;;;7.53;78.90;100671.53;6284936;22;1892;-93
2022/06/01 23:57:44;;;;;;;;;;;;;;;7.75;78.41;100666.03;6284857;22;1179;-93
